createdAt,value
2019-03-24T00:02:30.218Z,4.53
2019-03-24T00:05:01.420Z,4.53
2019-03-24T00:07:33.727Z,5.30
2019-03-24T00:10:05.631Z,5.30
2019-03-24T00:12:37.138Z,4.97
2019-03-24T00:15:09.107Z,4.60
2019-03-24T00:17:40.140Z,4.73
2019-03-24T00:20:11.714Z,5.33
2019-03-24T00:22:43.028Z,6.83
2019-03-24T00:25:14.671Z,6.40
2019-03-24T00:27:46.406Z,6.23
2019-03-24T00:30:18.062Z,5.30
2019-03-24T00:32:49.478Z,5.10
2019-03-24T00:35:20.993Z,5.40
2019-03-24T00:37:52.237Z,4.93
2019-03-24T00:40:23.358Z,5.20
2019-03-24T00:42:54.750Z,5.13
2019-03-24T00:45:36.264Z,4.40
2019-03-24T00:48:04.765Z,4.87
2019-03-24T00:50:35.931Z,4.20
2019-03-24T00:53:07.046Z,4.17
2019-03-24T00:55:38.160Z,4.40
2019-03-24T00:58:09.397Z,5.40
2019-03-24T01:00:49.685Z,5.10
2019-03-24T01:03:21.180Z,5.27
2019-03-24T01:05:52.253Z,5.67
2019-03-24T01:08:23.455Z,5.00
2019-03-24T01:10:54.565Z,5.60
2019-03-24T01:13:25.871Z,5.30
2019-03-24T01:15:56.964Z,4.90
2019-03-24T01:18:28.118Z,5.10
2019-03-24T01:20:59.374Z,5.00
2019-03-24T01:23:30.764Z,5.23
2019-03-24T01:26:02.377Z,5.33
2019-03-24T01:28:33.886Z,5.27
2019-03-24T01:31:05.001Z,5.40
2019-03-24T01:33:36.657Z,5.67
2019-03-24T01:36:07.734Z,5.47
2019-03-24T01:38:38.897Z,5.57
2019-03-24T01:41:10.006Z,4.60
2019-03-24T01:43:41.385Z,4.90
2019-03-24T01:46:12.469Z,5.20
2019-03-24T01:48:43.983Z,5.40
2019-03-24T01:51:15.209Z,5.73
2019-03-24T01:53:46.166Z,5.37
2019-03-24T01:56:17.244Z,5.70
2019-03-24T01:58:48.892Z,4.83
2019-03-24T02:01:20.340Z,4.70
2019-03-24T02:03:51.485Z,4.77
2019-03-24T02:06:22.804Z,4.90
2019-03-24T02:08:53.997Z,4.83
2019-03-24T02:11:25.126Z,4.33
2019-03-24T02:13:56.274Z,5.27
2019-03-24T02:16:27.335Z,5.00
2019-03-24T02:18:58.381Z,4.97
2019-03-24T02:21:29.667Z,5.07
2019-03-24T02:24:00.877Z,5.10
2019-03-24T02:26:32.047Z,5.17
2019-03-24T02:29:03.494Z,5.00
2019-03-24T02:31:34.620Z,5.13
2019-03-24T02:34:05.739Z,5.47
2019-03-24T02:36:36.822Z,5.03
2019-03-24T02:39:09.466Z,5.87
2019-03-24T02:41:41.029Z,4.73
2019-03-24T02:44:12.146Z,5.17
2019-03-24T02:46:43.268Z,4.73
2019-03-24T02:49:14.638Z,4.37
2019-03-24T02:51:46.059Z,6.13
2019-03-24T02:54:17.222Z,4.57
2019-03-24T02:56:48.411Z,5.07
2019-03-24T02:59:19.566Z,4.63
2019-03-24T03:01:51.408Z,5.07
2019-03-24T03:04:22.514Z,5.17
2019-03-24T03:06:53.666Z,4.73
2019-03-24T03:09:24.833Z,5.00
2019-03-24T03:11:55.848Z,5.27
2019-03-24T03:14:27.004Z,4.90
2019-03-24T03:16:58.117Z,5.20
2019-03-24T03:19:29.436Z,4.77
2019-03-24T03:22:04.998Z,6.03
2019-03-24T03:24:35.919Z,5.60
2019-03-24T03:27:06.945Z,5.07
2019-03-24T03:29:38.167Z,6.10
2019-03-24T03:32:09.558Z,7.83
2019-03-24T03:34:40.732Z,8.03
2019-03-24T03:37:12.095Z,8.93
2019-03-24T03:39:43.162Z,10.13
2019-03-24T03:42:14.557Z,10.77
2019-03-24T03:44:45.665Z,9.60
2019-03-24T03:47:16.966Z,11.20
2019-03-24T03:49:48.048Z,11.77
2019-03-24T03:52:19.209Z,10.73
2019-03-24T03:54:50.643Z,10.60
2019-03-24T03:57:21.786Z,11.90
2019-03-24T03:59:53.284Z,11.00
2019-03-24T04:02:24.656Z,11.37
2019-03-24T04:04:55.731Z,11.07
2019-03-24T04:07:26.825Z,12.10
2019-03-24T04:09:58.245Z,12.23
2019-03-24T04:12:29.486Z,13.67
2019-03-24T04:15:01.115Z,12.87
2019-03-24T04:17:32.456Z,11.73
2019-03-24T04:20:03.581Z,11.90
2019-03-24T04:22:37.346Z,11.83
2019-03-24T04:25:08.653Z,12.37
2019-03-24T04:27:40.090Z,13.03
2019-03-24T04:30:11.885Z,13.77
2019-03-24T04:32:43.067Z,12.90
2019-03-24T04:35:14.247Z,15.13
2019-03-24T04:37:49.921Z,17.27
2019-03-24T04:40:21.048Z,17.50
2019-03-24T04:42:52.789Z,19.13
2019-03-24T04:45:23.887Z,17.77
2019-03-24T04:47:55.154Z,18.30
2019-03-24T04:50:26.915Z,16.50
2019-03-24T04:52:58.459Z,14.53
2019-03-24T04:55:29.628Z,14.87
2019-03-24T04:58:01.223Z,14.03
2019-03-24T05:00:42.053Z,12.87
2019-03-24T05:03:13.222Z,12.80
2019-03-24T05:05:44.693Z,14.80
2019-03-24T05:08:16.927Z,16.07
2019-03-24T05:10:48.380Z,16.77
2019-03-24T05:13:19.772Z,16.43
2019-03-24T05:15:50.892Z,13.90
2019-03-24T05:18:22.202Z,12.67
2019-03-24T05:20:53.601Z,13.07
2019-03-24T05:23:24.493Z,12.77
2019-03-24T05:25:55.559Z,10.93
2019-03-24T05:28:27.030Z,10.67
2019-03-24T05:30:58.350Z,11.53
2019-03-24T05:33:31.913Z,11.23
2019-03-24T05:36:03.539Z,10.70
2019-03-24T05:38:34.701Z,10.80
2019-03-24T05:41:05.817Z,9.70
2019-03-24T05:43:37.351Z,8.20
2019-03-24T05:46:08.366Z,8.90
2019-03-24T05:48:42.182Z,9.47
2019-03-24T05:51:13.726Z,9.73
2019-03-24T05:53:44.749Z,11.07
2019-03-24T05:56:16.273Z,9.23
2019-03-24T05:58:47.417Z,8.47
2019-03-24T06:01:18.539Z,7.90
2019-03-24T06:03:49.572Z,8.40
2019-03-24T06:06:20.698Z,8.40
2019-03-24T06:08:52.018Z,9.07
2019-03-24T06:11:23.127Z,9.60
2019-03-24T06:13:54.245Z,9.17
2019-03-24T06:16:25.621Z,9.00
2019-03-24T06:18:57.644Z,7.97
2019-03-24T06:21:31.186Z,8.20
2019-03-24T06:24:02.535Z,10.27
2019-03-24T06:26:33.882Z,9.47
2019-03-24T06:29:05.083Z,9.47
2019-03-24T06:31:36.168Z,9.37
2019-03-24T06:34:07.261Z,9.40
2019-03-24T06:36:38.493Z,9.07
2019-03-24T06:39:10.194Z,8.53
2019-03-24T06:41:41.829Z,7.97
2019-03-24T06:44:12.857Z,9.53
2019-03-24T06:46:44.017Z,8.17
2019-03-24T06:49:15.399Z,8.93
2019-03-24T06:51:46.424Z,9.23
2019-03-24T06:54:17.567Z,8.93
2019-03-24T06:56:48.583Z,9.33
2019-03-24T06:59:19.654Z,9.47
2019-03-24T07:01:51.042Z,9.77
2019-03-24T07:04:22.477Z,9.80
2019-03-24T07:06:53.640Z,8.63
2019-03-24T07:09:24.706Z,8.87
2019-03-24T07:11:55.797Z,8.93
2019-03-24T07:14:26.767Z,9.33
2019-03-24T07:16:58.123Z,10.33
2019-03-24T07:19:29.545Z,9.53
2019-03-24T07:22:00.650Z,9.13
2019-03-24T07:24:32.270Z,9.13
2019-03-24T07:27:03.299Z,9.60
2019-03-24T07:29:34.635Z,9.60
2019-03-24T07:32:05.686Z,9.77
2019-03-24T07:34:37.255Z,9.53
2019-03-24T07:37:08.452Z,9.73
2019-03-24T07:39:39.506Z,9.63
2019-03-24T07:42:10.603Z,10.70
2019-03-24T07:44:42.221Z,10.00
2019-03-24T07:47:16.288Z,10.40
2019-03-24T07:49:47.391Z,10.17
2019-03-24T07:52:18.850Z,10.80
2019-03-24T07:54:50.031Z,9.93
2019-03-24T07:57:21.401Z,9.73
2019-03-24T07:59:52.554Z,8.83
2019-03-24T08:02:24.167Z,9.00
2019-03-24T08:04:55.404Z,9.57
2019-03-24T08:07:26.521Z,9.50
2019-03-24T08:09:57.588Z,9.27
2019-03-24T08:12:28.984Z,8.83
2019-03-24T08:15:00.211Z,8.90
2019-03-24T08:17:31.412Z,9.13
2019-03-24T08:20:02.340Z,9.27
2019-03-24T08:22:33.743Z,10.03
2019-03-24T08:25:07.164Z,10.30
2019-03-24T08:27:38.281Z,9.83
2019-03-24T08:30:09.721Z,8.47
2019-03-24T08:32:40.829Z,8.07
2019-03-24T08:35:12.390Z,8.03
2019-03-24T08:37:43.402Z,8.50
2019-03-24T08:40:15.011Z,8.17
2019-03-24T08:42:46.395Z,8.30
2019-03-24T08:45:27.500Z,7.80
2019-03-24T08:47:59.051Z,7.20
2019-03-24T08:50:33.758Z,7.60
2019-03-24T08:53:05.170Z,6.53
2019-03-24T08:55:36.246Z,7.20
2019-03-24T08:58:07.341Z,7.43
2019-03-24T09:00:39.494Z,7.20
2019-03-24T09:03:10.620Z,8.00
2019-03-24T09:05:42.214Z,7.43
2019-03-24T09:08:13.289Z,6.33
2019-03-24T09:10:44.607Z,6.97
2019-03-24T09:13:16.752Z,6.47
2019-03-24T09:15:48.386Z,7.00
2019-03-24T09:18:21.186Z,6.10
2019-03-24T09:20:52.270Z,5.93
2019-03-24T09:23:23.671Z,6.27
2019-03-24T09:25:55.495Z,6.07
2019-03-24T09:28:27.060Z,5.80
2019-03-24T09:30:58.476Z,5.23
2019-03-24T09:33:29.842Z,4.40
2019-03-24T09:36:01.300Z,5.17
2019-03-24T09:38:41.492Z,5.90
2019-03-24T09:41:12.732Z,6.13
2019-03-24T09:43:44.332Z,6.23
2019-03-24T09:46:15.669Z,6.23
2019-03-24T09:48:46.678Z,5.73
2019-03-24T09:51:17.873Z,6.20
2019-03-24T09:53:49.037Z,6.00
2019-03-24T09:56:20.545Z,5.90
2019-03-24T09:58:51.709Z,4.70
2019-03-24T10:01:23.107Z,4.47
2019-03-24T10:03:54.312Z,4.37
2019-03-24T10:06:26.365Z,3.50
2019-03-24T10:08:57.819Z,3.17
2019-03-24T10:11:28.827Z,3.20
2019-03-24T10:14:00.030Z,3.53
2019-03-24T10:16:31.114Z,3.40
2019-03-24T10:19:02.185Z,3.63
2019-03-24T10:21:33.621Z,3.50
2019-03-24T10:24:07.837Z,3.07
2019-03-24T10:26:38.440Z,2.40
2019-03-24T10:29:09.865Z,2.87
2019-03-24T10:31:42.619Z,3.70
2019-03-24T10:34:13.664Z,3.60
2019-03-24T10:36:44.698Z,3.30
2019-03-24T10:39:21.802Z,2.73
2019-03-24T10:41:53.147Z,2.67
2019-03-24T10:44:24.408Z,3.13
2019-03-24T10:46:55.546Z,3.60
2019-03-24T10:49:27.191Z,3.00
2019-03-24T10:51:58.617Z,3.60
2019-03-24T10:54:30.646Z,3.07
2019-03-24T10:57:01.821Z,3.03
2019-03-24T10:59:32.938Z,2.60
2019-03-24T11:02:04.164Z,2.20
2019-03-24T11:04:35.490Z,2.27
2019-03-24T11:07:06.506Z,2.60
2019-03-24T11:09:37.778Z,2.73
2019-03-24T11:12:09.229Z,2.40
2019-03-24T11:14:40.850Z,2.50
2019-03-24T11:17:12.049Z,2.60
2019-03-24T11:19:45.184Z,2.60
2019-03-24T11:22:16.425Z,2.63
2019-03-24T11:24:47.962Z,3.13
2019-03-24T11:27:19.114Z,2.67
2019-03-24T11:29:50.359Z,2.87
2019-03-24T11:32:21.633Z,2.43
2019-03-24T11:34:52.681Z,2.73
2019-03-24T11:37:24.379Z,2.70
2019-03-24T11:39:55.393Z,3.10
2019-03-24T11:42:26.519Z,3.50
2019-03-24T11:44:57.814Z,2.20
2019-03-24T11:47:29.216Z,2.60
2019-03-24T11:50:00.548Z,3.63
2019-03-24T11:52:31.680Z,3.40
2019-03-24T11:55:03.601Z,3.37
2019-03-24T11:57:35.009Z,2.97
2019-03-24T12:00:07.609Z,2.70
2019-03-24T12:02:38.981Z,2.60
2019-03-24T12:05:13.531Z,2.37
2019-03-24T12:07:44.705Z,2.20
2019-03-24T12:10:17.774Z,2.20
2019-03-24T12:12:49.259Z,2.60
2019-03-24T12:15:20.394Z,3.20
2019-03-24T12:17:51.525Z,3.20
2019-03-24T12:20:22.804Z,3.00
2019-03-24T12:22:54.308Z,3.23
2019-03-24T12:25:25.782Z,3.37
2019-03-24T12:27:57.736Z,2.93
2019-03-24T12:30:42.275Z,2.70
2019-03-24T12:33:14.442Z,2.80
2019-03-24T12:35:45.590Z,3.83
2019-03-24T12:38:16.948Z,3.30
2019-03-24T12:40:48.031Z,3.87
2019-03-24T12:43:19.956Z,3.33
2019-03-24T12:45:51.629Z,3.27
2019-03-24T12:48:22.966Z,3.30
2019-03-24T12:50:54.100Z,2.60
2019-03-24T12:53:25.272Z,2.43
2019-03-24T12:55:56.428Z,2.17
2019-03-24T12:58:27.391Z,1.80
2019-03-24T13:00:58.928Z,1.87
2019-03-24T13:03:29.930Z,1.30
2019-03-24T13:06:01.530Z,1.80
2019-03-24T13:08:32.490Z,1.70
2019-03-24T13:11:05.719Z,1.83
2019-03-24T13:13:36.903Z,2.20
2019-03-24T13:16:07.967Z,2.17
2019-03-24T13:18:39.029Z,2.33
2019-03-24T13:21:10.104Z,2.30
2019-03-24T13:23:41.176Z,2.17
2019-03-24T13:26:12.292Z,1.90
2019-03-24T13:28:43.730Z,1.73
2019-03-24T13:31:15.130Z,1.73
2019-03-24T13:33:46.942Z,2.10
2019-03-24T13:36:18.247Z,1.90
2019-03-24T13:38:49.678Z,2.03
2019-03-24T13:41:20.790Z,2.30
2019-03-24T13:43:52.152Z,2.70
2019-03-24T13:46:23.586Z,3.27
2019-03-24T13:48:54.652Z,3.20
2019-03-24T13:51:26.057Z,3.53
2019-03-24T13:53:57.896Z,3.80
2019-03-24T13:56:29.285Z,4.17
2019-03-24T13:59:00.620Z,3.73
2019-03-24T14:01:32.253Z,3.40
2019-03-24T14:04:03.432Z,3.43
2019-03-24T14:06:34.805Z,3.70
2019-03-24T14:09:08.252Z,3.80
2019-03-24T14:11:39.361Z,5.07
2019-03-24T14:14:10.892Z,3.90
2019-03-24T14:16:42.222Z,4.17
2019-03-24T14:19:13.379Z,4.50
2019-03-24T14:21:44.887Z,4.63
2019-03-24T14:24:16.269Z,4.60
2019-03-24T14:26:47.658Z,4.23
2019-03-24T14:29:18.706Z,4.27
2019-03-24T14:31:49.762Z,4.10
2019-03-24T14:34:21.144Z,4.60
2019-03-24T14:36:52.161Z,4.30
2019-03-24T14:39:23.315Z,5.00
2019-03-24T14:41:54.446Z,4.53
2019-03-24T14:44:25.550Z,4.47
2019-03-24T14:46:56.663Z,5.10
2019-03-24T14:49:28.006Z,4.20
2019-03-24T14:51:59.075Z,4.83
2019-03-24T14:54:30.251Z,3.73
2019-03-24T14:57:01.394Z,4.20
2019-03-24T14:59:32.836Z,3.60
2019-03-24T15:02:03.881Z,4.70
2019-03-24T15:04:34.847Z,3.17
2019-03-24T15:07:06.428Z,3.37
2019-03-24T15:09:37.570Z,2.97
2019-03-24T15:12:08.702Z,2.90
2019-03-24T15:14:40.365Z,2.37
2019-03-24T15:17:11.594Z,3.10
2019-03-24T15:19:42.649Z,2.60
2019-03-24T15:22:13.749Z,2.50
2019-03-24T15:24:44.843Z,2.53
2019-03-24T15:27:16.220Z,2.63
2019-03-24T15:29:47.533Z,2.20
2019-03-24T15:32:18.617Z,2.83
2019-03-24T15:34:49.982Z,2.97
2019-03-24T15:37:21.459Z,2.60
2019-03-24T15:39:52.598Z,2.70
2019-03-24T15:42:23.722Z,2.20
2019-03-24T15:44:54.863Z,2.57
2019-03-24T15:47:26.157Z,2.17
2019-03-24T15:49:57.277Z,2.13
2019-03-24T15:52:28.301Z,2.13
2019-03-24T15:54:59.637Z,2.20
2019-03-24T15:57:30.792Z,2.57
2019-03-24T16:00:02.228Z,2.00
2019-03-24T16:02:33.409Z,2.33
2019-03-24T16:05:04.858Z,2.30
2019-03-24T16:07:36.284Z,2.13
2019-03-24T16:10:08.141Z,2.93
2019-03-24T16:12:39.252Z,2.10
2019-03-24T16:15:11.111Z,2.83
2019-03-24T16:17:42.536Z,2.70
2019-03-24T16:20:13.596Z,2.53
2019-03-24T16:22:44.719Z,2.90
2019-03-24T16:25:15.848Z,2.97
2019-03-24T16:27:46.861Z,2.80
2019-03-24T16:30:18.105Z,2.70
2019-03-24T16:32:49.440Z,3.10
2019-03-24T16:35:20.579Z,2.73
2019-03-24T16:37:51.708Z,2.50
2019-03-24T16:40:22.754Z,2.50
2019-03-24T16:42:53.814Z,3.30
2019-03-24T16:45:24.902Z,2.47
2019-03-24T16:47:55.904Z,2.80
2019-03-24T16:50:27.314Z,2.80
2019-03-24T16:52:58.445Z,2.30
2019-03-24T16:55:29.547Z,3.00
2019-03-24T16:58:00.558Z,2.40
2019-03-24T17:00:31.952Z,2.67
2019-03-24T17:03:03.287Z,2.10
2019-03-24T17:05:34.211Z,2.43
2019-03-24T17:08:05.352Z,2.67
2019-03-24T17:10:36.477Z,3.13
2019-03-24T17:13:07.614Z,2.63
2019-03-24T17:15:38.691Z,2.50
2019-03-24T17:18:09.862Z,3.47
2019-03-24T17:20:41.000Z,3.10
2019-03-24T17:23:12.931Z,2.60
2019-03-24T17:25:44.054Z,2.60
2019-03-24T17:28:15.062Z,2.40
2019-03-24T17:30:46.296Z,2.60
2019-03-24T17:33:17.974Z,2.70
2019-03-24T17:35:50.245Z,2.27
2019-03-24T17:38:21.648Z,2.87
2019-03-24T17:40:53.235Z,2.60
2019-03-24T17:43:24.406Z,2.50
2019-03-24T17:45:55.794Z,3.00
2019-03-24T17:48:27.023Z,2.97
2019-03-24T17:50:58.537Z,2.20
2019-03-24T17:53:29.764Z,2.60
2019-03-24T17:56:01.037Z,2.70
2019-03-24T17:58:32.377Z,2.93
2019-03-24T18:01:03.589Z,2.93
2019-03-24T18:03:34.545Z,3.33
2019-03-24T18:06:05.712Z,2.70
2019-03-24T18:08:36.833Z,3.10
2019-03-24T18:11:07.929Z,2.70
2019-03-24T18:13:39.133Z,2.67
2019-03-24T18:16:10.885Z,2.80
2019-03-24T18:18:42.137Z,2.87
2019-03-24T18:21:13.235Z,2.50
2019-03-24T18:23:44.632Z,2.70
2019-03-24T18:26:15.701Z,2.40
2019-03-24T18:28:47.119Z,3.67
2019-03-24T18:31:18.174Z,3.00
2019-03-24T18:33:49.310Z,2.57
2019-03-24T18:36:20.401Z,2.40
2019-03-24T18:38:51.520Z,2.63
2019-03-24T18:41:22.640Z,2.30
2019-03-24T18:43:54.075Z,2.40
2019-03-24T18:46:25.236Z,2.33
2019-03-24T18:48:56.364Z,2.13
2019-03-24T18:51:27.498Z,2.47
2019-03-24T18:53:58.643Z,2.13
2019-03-24T18:56:29.722Z,2.50
2019-03-24T18:59:00.747Z,2.70
2019-03-24T19:01:32.070Z,2.13
2019-03-24T19:04:03.373Z,1.97
2019-03-24T19:06:34.373Z,2.53
2019-03-24T19:09:07.859Z,2.43
2019-03-24T19:11:38.971Z,2.77
2019-03-24T19:14:10.383Z,2.30
2019-03-24T19:16:41.851Z,1.97
2019-03-24T19:19:12.946Z,2.63
2019-03-24T19:21:45.489Z,2.57
2019-03-24T19:24:16.770Z,2.37
2019-03-24T19:26:48.113Z,2.57
2019-03-24T19:29:19.612Z,2.50
2019-03-24T19:31:50.998Z,2.60
2019-03-24T19:34:22.450Z,2.57
2019-03-24T19:36:53.814Z,2.30
2019-03-24T19:39:25.420Z,2.13
2019-03-24T19:41:56.559Z,2.43
2019-03-24T19:44:27.633Z,2.17
2019-03-24T19:46:58.916Z,2.40
2019-03-24T19:49:30.119Z,3.10
2019-03-24T19:52:01.603Z,2.53
2019-03-24T19:54:33.059Z,2.47
2019-03-24T19:57:04.131Z,2.50
2019-03-24T19:59:35.331Z,2.70
2019-03-24T20:02:06.456Z,2.43
2019-03-24T20:04:38.080Z,2.60
2019-03-24T20:07:09.537Z,2.47
2019-03-24T20:09:40.886Z,2.60
2019-03-24T20:12:12.143Z,2.87
2019-03-24T20:14:43.663Z,2.73
2019-03-24T20:17:14.794Z,2.63
2019-03-24T20:19:46.696Z,2.77
2019-03-24T20:22:18.008Z,3.33
2019-03-24T20:24:49.462Z,2.97
2019-03-24T20:27:20.511Z,3.10
2019-03-24T20:29:51.548Z,2.80
2019-03-24T20:32:22.980Z,3.27
2019-03-24T20:34:54.210Z,3.17
2019-03-24T20:37:25.370Z,3.30
2019-03-24T20:39:56.284Z,3.10
2019-03-24T20:42:27.419Z,2.60
2019-03-24T20:44:58.503Z,2.80
2019-03-24T20:47:29.588Z,2.63
2019-03-24T20:50:03.762Z,3.30
2019-03-24T20:52:33.996Z,2.70
2019-03-24T20:55:05.706Z,2.67
2019-03-24T20:57:37.059Z,2.40
2019-03-24T21:00:10.063Z,2.30
2019-03-24T21:02:41.393Z,2.73
2019-03-24T21:05:12.865Z,3.00
2019-03-24T21:07:44.111Z,2.57
2019-03-24T21:10:15.618Z,3.00
2019-03-24T21:12:46.928Z,3.40
2019-03-24T21:15:18.045Z,2.67
2019-03-24T21:17:49.452Z,3.07
2019-03-24T21:20:20.869Z,3.07
2019-03-24T21:22:52.712Z,2.70
2019-03-24T21:25:23.761Z,3.00
2019-03-24T21:27:54.895Z,3.60
2019-03-24T21:30:37.012Z,3.67
2019-03-24T21:33:08.455Z,4.00
2019-03-24T21:35:40.033Z,3.27
2019-03-24T21:38:11.117Z,3.30
2019-03-24T21:40:42.471Z,3.40
2019-03-24T21:43:28.880Z,2.90
2019-03-24T21:45:59.979Z,3.20
2019-03-24T21:48:31.110Z,3.30
2019-03-24T21:51:02.210Z,3.17
2019-03-24T21:53:40.608Z,3.60
2019-03-24T21:56:06.088Z,3.10
2019-03-24T21:58:37.160Z,3.13
2019-03-24T22:01:08.298Z,3.27
2019-03-24T22:03:39.346Z,3.20
2019-03-24T22:06:10.757Z,3.77
2019-03-24T22:08:43.055Z,3.33
2019-03-24T22:11:14.111Z,3.20
2019-03-24T22:13:45.565Z,3.00
2019-03-24T22:16:16.650Z,2.90
2019-03-24T22:18:58.417Z,3.33
2019-03-24T22:21:29.559Z,3.50
2019-03-24T22:24:01.143Z,2.93
2019-03-24T22:26:32.342Z,3.93
2019-03-24T22:29:03.387Z,3.23
2019-03-24T22:31:34.584Z,3.30
2019-03-24T22:34:06.034Z,2.97
2019-03-24T22:36:37.872Z,3.03
2019-03-24T22:39:09.784Z,2.97
2019-03-24T22:41:40.847Z,3.47
2019-03-24T22:44:11.905Z,3.20
2019-03-24T22:46:43.033Z,2.70
2019-03-24T22:49:14.178Z,3.57
2019-03-24T22:51:45.378Z,3.20
2019-03-24T22:54:16.891Z,2.80
2019-03-24T22:56:48.254Z,3.37
2019-03-24T22:59:19.453Z,3.00
2019-03-24T23:01:50.637Z,3.03
2019-03-24T23:04:22.043Z,3.07
2019-03-24T23:06:53.233Z,3.20
2019-03-24T23:09:24.312Z,2.50
2019-03-24T23:11:55.486Z,3.03
2019-03-24T23:14:26.576Z,2.70
2019-03-24T23:16:57.603Z,2.57
2019-03-24T23:19:28.775Z,3.10
2019-03-24T23:22:00.208Z,3.30
2019-03-24T23:24:31.463Z,2.87
2019-03-24T23:27:02.897Z,3.13
2019-03-24T23:29:34.013Z,3.00
2019-03-24T23:32:05.150Z,2.97
2019-03-24T23:34:36.182Z,3.13
2019-03-24T23:37:07.166Z,3.07
2019-03-24T23:39:38.554Z,3.27
2019-03-24T23:42:09.782Z,3.50
2019-03-24T23:44:41.106Z,2.97
2019-03-24T23:47:12.226Z,3.17
2019-03-24T23:49:43.307Z,3.37
2019-03-24T23:52:14.776Z,3.73
2019-03-24T23:54:46.744Z,3.60
2019-03-24T23:57:17.992Z,3.27
2019-03-24T23:59:49.023Z,3.40
